PHTO

Hilo International Airport

Hilo, Hawaii, USA
PHTO 202326Z 2100/2124 10006KT P6SM VCSH FEW010 SCT020 BKN040 FM210500 24005KT P6SM VCSH SCT020 BKN035 OVC250 FM212000 10006KT P6SM VCSH SCT020 BKN035 OVC250
Issued Valid From Valid To
Apr-20 @ 23:26 UTC
(4 hours ago)
Apr-21 @ 00:00 UTC
(4 hours ago)
Apr-22 @ 00:00 UTC
(in 20 hours)
Apr-21 @ 00:00 to Apr-21 @ 05:00
PHTO 202326Z 2100/2124 10006KT P6SM VCSH FEW010 SCT020 BKN040
Wind Visibility Clouds
100° at 6 knots Greater than 6 miles
  • Few at 1,000' AGL
  • Scattered at 2,000' AGL
  • Broken at 4,000' AGL
From Apr-21 @ 05:00 to Apr-21 @ 20:00
FM210500 24005KT P6SM VCSH SCT020 BKN035 OVC250
Wind Visibility Clouds
240° at 5 knots Greater than 6 miles
  • Scattered at 2,000' AGL
  • Broken at 3,500' AGL
  • Overcast at 25,000' AGL
From Apr-21 @ 20:00 to Apr-22 @ 00:00
FM212000 10006KT P6SM VCSH SCT020 BKN035 OVC250
Wind Visibility Clouds
100° at 6 knots Greater than 6 miles
  • Scattered at 2,000' AGL
  • Broken at 3,500' AGL
  • Overcast at 25,000' AGL
PHTO 202326Z 2100/2124 10006KT P6SM VCSH FEW010 SCT020 BKN040 FM210500 24005KT P6SM VCSH SCT020 BKN035 OVC250 FM212000 10006KT P6SM VCSH SCT020 BKN035 OVC250
Issued Apr-20 @ 23:26 UTC
(4 hours ago)
Valid From Apr-21 @ 00:00 UTC
(4 hours ago)
Valid To Apr-22 @ 00:00 UTC
(in 20 hours)
Apr-21 @ 00:00 - Apr-21 @ 05:00
Wind Visibility
100° at 6 knots Greater than 6 miles
Clouds
  • Few at 1,000' AGL
  • Scattered at 2,000' AGL
  • Broken at 4,000' AGL
From Apr-21 @ 05:00 - Apr-21 @ 20:00
Wind Visibility
240° at 5 knots Greater than 6 miles
Clouds
  • Scattered at 2,000' AGL
  • Broken at 3,500' AGL
  • Overcast at 25,000' AGL
From Apr-21 @ 20:00 - Apr-22 @ 00:00
Wind Visibility
100° at 6 knots Greater than 6 miles
Clouds
  • Scattered at 2,000' AGL
  • Broken at 3,500' AGL
  • Overcast at 25,000' AGL